createdAt,value
2022-10-30T00:02:05.756Z,31.17
2022-10-30T00:04:35.349Z,30.83
2022-10-30T00:07:03.420Z,29.97
2022-10-30T00:09:31.563Z,31.80
2022-10-30T00:11:59.619Z,30.97
2022-10-30T00:14:27.661Z,30.03
2022-10-30T00:16:55.729Z,29.50
2022-10-30T00:19:23.897Z,28.73
2022-10-30T00:21:53.389Z,30.30
2022-10-30T00:24:21.454Z,28.80
2022-10-30T00:26:49.838Z,29.40
2022-10-30T00:29:18.076Z,31.70
2022-10-30T00:31:46.132Z,31.00
2022-10-30T00:34:14.263Z,29.37
2022-10-30T00:36:42.316Z,31.03
2022-10-30T00:39:11.860Z,28.40
2022-10-30T00:41:41.787Z,28.93
2022-10-30T00:44:36.406Z,30.40
2022-10-30T00:47:06.302Z,30.33
2022-10-30T00:49:36.429Z,29.60
2022-10-30T00:52:05.069Z,29.63
2022-10-30T00:54:34.547Z,30.47
2022-10-30T00:57:02.782Z,30.70
2022-10-30T00:59:32.184Z,29.17
2022-10-30T01:02:00.404Z,29.67
2022-10-30T01:04:30.240Z,30.30
2022-10-30T01:06:58.610Z,31.30
2022-10-30T01:09:26.797Z,29.57
2022-10-30T01:11:58.277Z,27.67
2022-10-30T01:14:26.422Z,30.00
2022-10-30T01:17:00.728Z,30.07
2022-10-30T01:19:32.444Z,30.63
2022-10-30T01:22:08.558Z,29.53
2022-10-30T01:24:43.342Z,29.90
2022-10-30T01:27:20.400Z,31.90
2022-10-30T01:29:53.526Z,30.77
2022-10-30T01:32:30.409Z,31.40
2022-10-30T01:35:00.701Z,33.37
2022-10-30T01:37:33.295Z,32.33
2022-10-30T01:40:06.140Z,33.23
2022-10-30T01:42:50.304Z,34.20
2022-10-30T01:45:22.869Z,34.20
2022-10-30T01:47:58.741Z,37.10
2022-10-30T01:50:31.559Z,34.87
2022-10-30T01:53:01.895Z,35.03
2022-10-30T01:55:35.662Z,39.57
2022-10-30T01:58:08.570Z,37.17
2022-10-30T02:00:36.627Z,37.37
2022-10-30T02:03:05.374Z,37.77
2022-10-30T02:05:36.566Z,38.17
2022-10-30T02:08:04.657Z,38.97
2022-10-30T02:10:32.773Z,38.50
2022-10-30T02:13:00.930Z,38.03
2022-10-30T02:15:30.377Z,38.83
2022-10-30T02:17:58.884Z,38.43
2022-10-30T02:20:28.688Z,42.30
2022-10-30T02:22:59.233Z,39.83
2022-10-30T02:25:27.926Z,41.67
2022-10-30T02:27:55.977Z,39.30
2022-10-30T02:30:24.073Z,39.60
2022-10-30T02:32:52.120Z,39.57
2022-10-30T02:35:20.195Z,40.73
2022-10-30T02:37:50.517Z,41.90
2022-10-30T02:40:18.688Z,41.23
2022-10-30T02:42:46.761Z,41.87
2022-10-30T02:45:15.047Z,42.07
2022-10-30T02:47:43.136Z,43.13
2022-10-30T02:50:11.591Z,43.80
2022-10-30T02:52:39.978Z,45.97
2022-10-30T02:55:10.111Z,42.70
2022-10-30T02:57:38.186Z,41.87
2022-10-30T03:00:07.435Z,41.93
2022-10-30T03:02:35.504Z,40.20
2022-10-30T03:05:03.724Z,42.10
2022-10-30T03:07:31.864Z,41.87
2022-10-30T03:10:00.026Z,41.20
2022-10-30T03:12:29.482Z,39.93
2022-10-30T03:14:57.670Z,38.43
2022-10-30T03:17:25.752Z,39.53
2022-10-30T03:19:53.945Z,38.40
2022-10-30T03:22:21.998Z,39.20
2022-10-30T03:24:50.146Z,37.33
2022-10-30T03:27:18.272Z,38.73
2022-10-30T03:29:47.764Z,36.63
2022-10-30T03:32:15.862Z,38.83
2022-10-30T03:34:43.988Z,36.80
2022-10-30T03:37:12.141Z,37.00
2022-10-30T03:39:40.283Z,36.37
2022-10-30T03:42:08.343Z,37.50
2022-10-30T03:44:36.472Z,36.00
2022-10-30T03:47:06.086Z,38.20
2022-10-30T03:49:34.181Z,38.23
2022-10-30T03:52:02.231Z,38.90
2022-10-30T03:54:30.322Z,39.47
2022-10-30T03:56:58.351Z,39.37
2022-10-30T03:59:26.548Z,39.70
2022-10-30T04:01:54.724Z,40.43
2022-10-30T04:04:24.455Z,41.37
2022-10-30T04:06:52.525Z,41.47
2022-10-30T04:09:20.672Z,40.27
2022-10-30T04:11:48.724Z,38.37
2022-10-30T04:14:16.872Z,39.77
2022-10-30T04:16:44.968Z,39.20
2022-10-30T04:19:13.114Z,38.87
2022-10-30T04:21:43.762Z,41.03
2022-10-30T04:24:14.170Z,38.63
2022-10-30T04:26:42.228Z,39.47
2022-10-30T04:29:10.349Z,37.90
2022-10-30T04:31:38.396Z,39.03
2022-10-30T04:34:06.534Z,39.50
2022-10-30T04:36:34.604Z,38.13
2022-10-30T04:39:04.141Z,41.27
2022-10-30T04:41:32.305Z,38.13
2022-10-30T04:44:00.435Z,36.90
2022-10-30T04:46:29.102Z,38.20
2022-10-30T04:48:57.429Z,40.23
2022-10-30T04:51:25.527Z,37.70
2022-10-30T04:53:54.277Z,39.93
2022-10-30T04:56:23.708Z,40.97
2022-10-30T04:58:52.455Z,39.37
2022-10-30T05:01:20.707Z,38.60
2022-10-30T05:03:52.015Z,40.47
2022-10-30T05:06:24.224Z,40.77
2022-10-30T05:08:52.488Z,40.00
2022-10-30T05:11:20.561Z,41.10
2022-10-30T05:13:50.080Z,42.17
2022-10-30T05:16:18.141Z,42.63
2022-10-30T05:18:46.246Z,42.50
2022-10-30T05:21:14.304Z,42.33
2022-10-30T05:23:42.359Z,41.77
2022-10-30T05:26:10.429Z,45.23
2022-10-30T05:28:38.476Z,49.67
2022-10-30T05:31:08.030Z,49.03
2022-10-30T05:33:36.066Z,46.87
2022-10-30T05:36:04.384Z,48.30
2022-10-30T05:38:32.460Z,48.27
2022-10-30T05:41:00.534Z,49.13
2022-10-30T05:43:28.635Z,50.27
2022-10-30T05:45:56.701Z,48.07
2022-10-30T05:48:26.171Z,47.40
2022-10-30T05:50:54.229Z,45.40
2022-10-30T05:53:22.369Z,43.77
2022-10-30T05:55:50.509Z,43.90
2022-10-30T05:58:18.596Z,44.43
2022-10-30T06:00:46.659Z,43.63
2022-10-30T06:03:14.826Z,42.80
2022-10-30T06:05:45.716Z,44.87
2022-10-30T06:08:13.788Z,43.00
2022-10-30T06:10:42.022Z,44.20
2022-10-30T06:13:11.489Z,46.23
2022-10-30T06:15:39.549Z,48.50
2022-10-30T06:18:07.645Z,43.43
2022-10-30T06:20:35.753Z,45.80
2022-10-30T06:23:06.095Z,47.40
2022-10-30T06:25:40.610Z,45.27
2022-10-30T06:28:10.472Z,41.97
2022-10-30T06:30:38.700Z,45.00
2022-10-30T06:33:07.707Z,44.07
2022-10-30T06:35:35.837Z,46.47
2022-10-30T06:38:05.654Z,44.80
2022-10-30T06:40:33.706Z,46.10
2022-10-30T06:43:02.222Z,47.80
2022-10-30T06:45:30.519Z,45.33
2022-10-30T06:47:58.811Z,47.63
2022-10-30T06:50:27.180Z,45.33
2022-10-30T06:52:56.020Z,48.43
2022-10-30T06:55:25.627Z,49.50
2022-10-30T06:57:57.354Z,45.47
2022-10-30T07:00:25.745Z,48.87
2022-10-30T07:03:01.764Z,50.97
2022-10-30T07:05:30.431Z,48.40
2022-10-30T07:07:59.066Z,48.90
2022-10-30T07:10:28.626Z,45.13
2022-10-30T07:12:58.919Z,45.20
2022-10-30T07:15:27.422Z,45.67
2022-10-30T07:17:59.471Z,44.07
2022-10-30T07:20:28.790Z,45.87
2022-10-30T07:22:56.888Z,43.50
2022-10-30T07:25:25.041Z,45.57
2022-10-30T07:27:54.837Z,44.20
2022-10-30T07:30:23.980Z,45.23
2022-10-30T07:32:59.034Z,45.30
2022-10-30T07:35:27.512Z,45.77
2022-10-30T07:37:55.670Z,47.47
2022-10-30T07:40:23.961Z,44.50
2022-10-30T07:42:58.941Z,47.30
2022-10-30T07:45:27.348Z,45.17
2022-10-30T07:47:55.822Z,45.17
2022-10-30T07:50:24.302Z,47.17
2022-10-30T07:52:52.344Z,46.73
2022-10-30T07:55:20.649Z,44.47
2022-10-30T07:57:48.749Z,46.33
2022-10-30T08:00:18.820Z,47.53
2022-10-30T08:02:50.323Z,46.37
2022-10-30T08:05:18.624Z,47.43
2022-10-30T08:07:47.646Z,47.90
2022-10-30T08:10:15.780Z,46.70
2022-10-30T08:12:45.955Z,45.57
2022-10-30T08:15:14.036Z,45.27
2022-10-30T08:17:46.996Z,47.37
2022-10-30T08:20:16.384Z,43.27
2022-10-30T08:22:48.210Z,44.50
2022-10-30T08:25:16.666Z,31.67
2022-10-30T08:27:52.775Z,38.53
2022-10-30T08:30:20.895Z,39.30
2022-10-30T08:32:50.351Z,40.50
2022-10-30T08:35:20.013Z,44.47
2022-10-30T08:37:48.431Z,41.73
2022-10-30T08:40:17.027Z,43.00
2022-10-30T08:42:51.005Z,42.63
2022-10-30T08:45:19.160Z,40.00
2022-10-30T08:47:47.235Z,38.00
2022-10-30T08:50:16.886Z,37.77
2022-10-30T08:52:45.195Z,36.27
2022-10-30T08:55:13.897Z,35.90
2022-10-30T08:57:42.002Z,37.93
2022-10-30T09:00:11.125Z,33.00
2022-10-30T09:02:40.540Z,35.83
2022-10-30T09:05:09.582Z,34.50
2022-10-30T09:07:39.149Z,33.23
2022-10-30T09:10:08.186Z,32.80
2022-10-30T09:12:36.297Z,31.37
2022-10-30T09:15:04.465Z,30.80
2022-10-30T09:17:32.550Z,32.27
2022-10-30T09:20:00.681Z,29.37
2022-10-30T09:22:28.810Z,29.93
2022-10-30T09:24:58.344Z,29.43
2022-10-30T09:27:27.631Z,26.20
2022-10-30T09:29:55.748Z,26.27
2022-10-30T09:32:23.819Z,25.80
2022-10-30T09:34:52.046Z,25.10
2022-10-30T09:37:20.349Z,24.93
2022-10-30T09:39:48.499Z,24.53
2022-10-30T09:42:36.674Z,26.10
2022-10-30T09:45:34.109Z,24.13
2022-10-30T09:48:10.200Z,21.97
2022-10-30T09:50:40.124Z,20.47
2022-10-30T09:53:12.074Z,20.20
2022-10-30T09:55:43.208Z,15.60
2022-10-30T09:58:21.514Z,15.30
2022-10-30T10:00:52.365Z,15.87
2022-10-30T10:03:27.710Z,14.87
2022-10-30T10:05:57.254Z,14.77
2022-10-30T10:08:28.308Z,14.93
2022-10-30T10:10:58.158Z,15.23
2022-10-30T10:13:34.150Z,16.17
2022-10-30T10:16:06.656Z,15.70
2022-10-30T10:18:37.016Z,15.23
2022-10-30T10:21:10.504Z,15.30
2022-10-30T10:23:42.796Z,15.30
2022-10-30T10:26:16.139Z,14.07
2022-10-30T10:28:51.142Z,14.27
2022-10-30T10:31:25.931Z,14.63
2022-10-30T10:34:02.358Z,14.27
2022-10-30T10:36:35.173Z,14.23
2022-10-30T10:39:30.101Z,15.00
2022-10-30T10:42:06.812Z,15.80
2022-10-30T10:44:46.790Z,15.90
2022-10-30T10:47:40.992Z,15.60
2022-10-30T10:50:17.483Z,14.83
2022-10-30T10:52:48.862Z,15.90
2022-10-30T10:55:18.636Z,13.10
2022-10-30T10:57:46.746Z,14.50
2022-10-30T11:00:20.497Z,14.47
2022-10-30T11:02:49.842Z,13.83
2022-10-30T11:05:23.235Z,14.67
2022-10-30T11:07:51.634Z,13.17
2022-10-30T11:10:21.046Z,12.63
2022-10-30T11:12:49.298Z,12.57
2022-10-30T11:15:35.655Z,12.63
2022-10-30T11:20:43.109Z,12.40
2022-10-30T11:23:42.201Z,12.17
2022-10-30T11:26:30.673Z,12.00
2022-10-30T11:29:00.188Z,11.57
2022-10-30T11:31:34.837Z,11.03
2022-10-30T11:34:16.659Z,11.50
2022-10-30T11:36:44.794Z,11.27
2022-10-30T11:39:13.346Z,11.43
2022-10-30T11:41:41.470Z,11.80
2022-10-30T11:44:10.263Z,11.10
2022-10-30T11:46:39.909Z,11.23
2022-10-30T11:49:08.060Z,10.90
2022-10-30T11:51:37.728Z,11.43
2022-10-30T11:54:06.506Z,13.40
2022-10-30T11:56:35.593Z,12.43
2022-10-30T11:59:04.877Z,12.07
2022-10-30T12:01:34.535Z,11.80
2022-10-30T12:04:17.229Z,11.33
2022-10-30T12:06:45.320Z,12.33
2022-10-30T12:09:14.311Z,10.40
2022-10-30T12:11:44.499Z,11.00
2022-10-30T12:14:20.799Z,11.60
2022-10-30T12:16:49.945Z,11.63
2022-10-30T12:19:20.650Z,10.50
2022-10-30T12:21:49.878Z,11.03
2022-10-30T12:24:19.828Z,10.57
2022-10-30T12:26:48.830Z,10.90
2022-10-30T12:29:18.176Z,10.67
2022-10-30T12:31:49.459Z,11.17
2022-10-30T12:34:29.541Z,10.80
2022-10-30T12:37:00.731Z,9.53
2022-10-30T12:39:31.359Z,9.80
2022-10-30T12:42:01.520Z,10.53
2022-10-30T12:44:30.977Z,10.57
2022-10-30T12:47:02.736Z,9.70
2022-10-30T12:49:36.092Z,10.07
2022-10-30T12:52:06.949Z,10.00
2022-10-30T12:54:37.999Z,9.97
2022-10-30T12:57:08.961Z,11.13
2022-10-30T12:59:41.073Z,10.63
2022-10-30T13:02:15.278Z,11.47
2022-10-30T13:04:46.100Z,11.10
2022-10-30T13:07:17.340Z,11.73
2022-10-30T13:09:48.346Z,12.27
2022-10-30T13:12:18.139Z,11.73
2022-10-30T13:14:48.964Z,11.70
2022-10-30T13:17:17.234Z,11.87
2022-10-30T13:19:49.083Z,11.77
2022-10-30T13:22:20.210Z,11.60
2022-10-30T13:24:52.163Z,13.43
2022-10-30T13:27:22.728Z,10.97
2022-10-30T13:29:53.644Z,11.40
2022-10-30T13:32:29.556Z,12.17
2022-10-30T13:35:02.174Z,11.10
2022-10-30T13:37:32.855Z,11.67
2022-10-30T13:40:07.058Z,13.13
2022-10-30T13:42:42.344Z,11.27
2022-10-30T13:45:24.437Z,11.90
2022-10-30T13:47:58.320Z,11.87
2022-10-30T13:50:34.232Z,11.30
2022-10-30T13:53:03.467Z,12.23
2022-10-30T13:55:32.467Z,11.07
2022-10-30T13:58:03.219Z,11.50
2022-10-30T14:00:37.036Z,11.67
2022-10-30T14:03:22.586Z,11.27
2022-10-30T14:05:54.881Z,11.77
2022-10-30T14:08:28.176Z,10.70
2022-10-30T14:11:00.442Z,9.97
2022-10-30T14:13:29.735Z,10.80
2022-10-30T14:16:01.766Z,10.70
2022-10-30T14:18:48.841Z,11.13
2022-10-30T14:21:43.719Z,11.17
2022-10-30T14:24:19.882Z,9.63
2022-10-30T14:26:53.100Z,9.70
2022-10-30T14:29:43.490Z,8.90
2022-10-30T14:32:42.946Z,9.83
2022-10-30T14:35:54.005Z,9.30
2022-10-30T14:38:33.049Z,8.80
2022-10-30T14:41:23.788Z,9.97
2022-10-30T14:43:57.973Z,9.20
2022-10-30T14:46:29.957Z,8.77
2022-10-30T14:49:02.968Z,9.03
2022-10-30T14:51:34.795Z,8.97
2022-10-30T14:54:07.140Z,8.70
2022-10-30T14:56:37.896Z,9.43
2022-10-30T14:59:25.741Z,9.53
2022-10-30T15:02:07.063Z,9.77
2022-10-30T15:04:40.204Z,10.50
2022-10-30T15:07:12.754Z,9.57
2022-10-30T15:10:00.627Z,9.27
2022-10-30T15:12:46.060Z,9.87
2022-10-30T15:15:15.223Z,10.33
2022-10-30T15:17:44.355Z,10.77
2022-10-30T15:20:17.118Z,10.90
2022-10-30T15:22:45.467Z,11.03
2022-10-30T15:25:20.314Z,11.03
2022-10-30T15:27:48.875Z,10.77
2022-10-30T15:30:18.223Z,12.27
2022-10-30T15:32:46.387Z,10.47
2022-10-30T15:35:17.092Z,10.30
2022-10-30T15:38:01.428Z,11.13
2022-10-30T15:40:31.018Z,10.63
2022-10-30T15:43:00.373Z,11.87
2022-10-30T15:45:31.928Z,11.53
2022-10-30T15:48:02.224Z,11.23
2022-10-30T15:50:30.696Z,10.70
2022-10-30T15:52:59.033Z,11.67
2022-10-30T15:55:30.512Z,11.43
2022-10-30T15:58:04.862Z,11.77
2022-10-30T16:00:34.649Z,12.20
2022-10-30T16:03:03.986Z,12.20
2022-10-30T16:05:32.552Z,11.83
2022-10-30T16:08:02.086Z,11.87
2022-10-30T16:10:34.698Z,12.13
2022-10-30T16:13:03.297Z,12.43
2022-10-30T16:15:32.849Z,12.53
2022-10-30T16:18:07.815Z,12.80
2022-10-30T16:20:36.436Z,12.30
2022-10-30T16:23:05.441Z,12.30
2022-10-30T16:25:38.993Z,12.77
2022-10-30T16:28:26.447Z,12.47
2022-10-30T16:30:54.635Z,11.47
2022-10-30T16:33:25.243Z,12.03
2022-10-30T16:35:55.732Z,11.93
2022-10-30T16:38:24.379Z,11.50
2022-10-30T16:40:53.881Z,11.77
2022-10-30T16:43:27.028Z,11.40
2022-10-30T16:45:55.435Z,12.37
2022-10-30T16:48:28.106Z,11.67
2022-10-30T16:51:03.183Z,12.37
2022-10-30T16:53:31.371Z,12.37
2022-10-30T16:56:00.939Z,13.60
2022-10-30T16:58:30.625Z,12.57
2022-10-30T17:01:03.791Z,12.47
2022-10-30T17:03:33.259Z,13.23
2022-10-30T17:06:02.742Z,13.30
2022-10-30T17:08:42.695Z,14.17
2022-10-30T17:11:19.846Z,13.53
2022-10-30T17:14:02.354Z,14.93
2022-10-30T17:16:30.936Z,13.83
2022-10-30T17:18:59.829Z,15.60
2022-10-30T17:21:29.209Z,14.93
2022-10-30T17:23:58.398Z,15.93
2022-10-30T17:26:28.070Z,16.00
2022-10-30T17:28:56.291Z,17.57
2022-10-30T17:31:30.953Z,16.03
2022-10-30T17:34:14.391Z,17.50
2022-10-30T17:36:42.597Z,17.87
2022-10-30T17:39:10.864Z,16.73
2022-10-30T17:41:40.315Z,17.93
2022-10-30T17:44:08.962Z,19.43
2022-10-30T17:46:37.167Z,18.20
2022-10-30T17:49:05.335Z,19.93
2022-10-30T17:51:33.572Z,18.20
2022-10-30T17:54:01.690Z,19.70
2022-10-30T17:56:31.096Z,20.23
2022-10-30T17:59:00.589Z,18.57
2022-10-30T18:01:28.988Z,19.37
2022-10-30T18:03:57.479Z,20.40
2022-10-30T18:06:26.742Z,20.03
2022-10-30T18:08:55.127Z,18.80
2022-10-30T18:11:24.535Z,19.90
2022-10-30T18:13:53.406Z,19.10
2022-10-30T18:16:23.022Z,19.47
2022-10-30T18:18:52.223Z,18.33
2022-10-30T18:21:21.220Z,20.33
2022-10-30T18:23:53.748Z,19.90
2022-10-30T18:26:23.346Z,20.00
2022-10-30T18:28:51.703Z,19.73
2022-10-30T18:31:20.722Z,21.23
2022-10-30T18:33:50.324Z,19.70
2022-10-30T18:36:19.361Z,20.57
2022-10-30T18:38:47.499Z,19.47
2022-10-30T18:41:16.913Z,19.90
2022-10-30T18:43:46.977Z,20.27
2022-10-30T18:46:15.805Z,19.53
2022-10-30T18:48:43.960Z,19.23
2022-10-30T18:51:16.397Z,18.70
2022-10-30T18:53:51.227Z,18.63
2022-10-30T18:56:20.354Z,20.00
2022-10-30T18:58:48.592Z,18.60
2022-10-30T19:01:16.902Z,19.77
2022-10-30T19:03:45.610Z,19.30
2022-10-30T19:06:15.762Z,18.83
2022-10-30T19:08:44.026Z,18.43
2022-10-30T19:11:13.037Z,18.87
2022-10-30T19:13:41.611Z,18.87
2022-10-30T19:16:12.007Z,18.90
2022-10-30T19:18:40.346Z,18.37
2022-10-30T19:21:14.541Z,18.00
2022-10-30T19:23:45.599Z,18.67
2022-10-30T19:26:14.769Z,18.50
2022-10-30T19:28:43.309Z,18.40
2022-10-30T19:31:14.005Z,17.77
2022-10-30T19:33:42.771Z,18.37
2022-10-30T19:36:28.957Z,18.27
2022-10-30T19:39:00.053Z,17.87
2022-10-30T19:44:03.312Z,18.00
2022-10-30T19:46:31.479Z,18.33
2022-10-30T19:49:00.514Z,18.80
2022-10-30T19:51:29.050Z,19.47
2022-10-30T19:53:58.567Z,20.40
2022-10-30T19:56:26.757Z,21.70
2022-10-30T19:58:55.172Z,23.73
2022-10-30T20:01:23.463Z,22.70
2022-10-30T20:03:51.949Z,22.97
2022-10-30T20:06:21.614Z,22.23
2022-10-30T20:08:49.906Z,21.67
2022-10-30T20:11:19.427Z,22.50
2022-10-30T20:13:50.654Z,21.17
2022-10-30T20:16:22.073Z,21.73
2022-10-30T20:18:50.974Z,22.40
2022-10-30T20:21:19.149Z,21.87
2022-10-30T20:23:47.368Z,20.53
2022-10-30T20:26:20.157Z,21.00
2022-10-30T20:28:48.605Z,21.23
2022-10-30T20:31:16.835Z,21.10
2022-10-30T20:33:45.057Z,21.03
2022-10-30T20:36:13.604Z,20.13
2022-10-30T20:38:42.024Z,19.87
2022-10-30T20:41:22.178Z,19.90
2022-10-30T20:43:51.086Z,19.50
2022-10-30T20:46:20.393Z,19.60
2022-10-30T20:48:48.609Z,19.87
2022-10-30T20:51:16.852Z,20.03
2022-10-30T20:53:45.072Z,19.73
2022-10-30T20:56:13.327Z,21.43
2022-10-30T20:58:43.498Z,21.57
2022-10-30T21:01:13.752Z,22.63
2022-10-30T21:03:42.095Z,21.27
2022-10-30T21:06:10.208Z,21.47
2022-10-30T21:08:38.654Z,21.90
2022-10-30T21:11:07.571Z,21.73
2022-10-30T21:13:35.980Z,21.87
2022-10-30T21:16:06.572Z,21.80
2022-10-30T21:18:34.853Z,22.47
2022-10-30T21:21:03.179Z,24.00
2022-10-30T21:23:31.380Z,23.33
2022-10-30T21:26:02.797Z,24.57
2022-10-30T21:28:31.065Z,24.60
2022-10-30T21:31:02.199Z,24.90
2022-10-30T21:33:32.705Z,25.47
2022-10-30T21:36:10.641Z,24.10
2022-10-30T21:38:41.586Z,25.97
2022-10-30T21:41:09.986Z,25.63
2022-10-30T21:43:38.141Z,24.57
2022-10-30T21:46:07.241Z,25.67
2022-10-30T21:48:36.847Z,25.70
2022-10-30T21:51:11.715Z,25.57
2022-10-30T21:53:40.173Z,25.10
2022-10-30T21:56:09.160Z,24.97
2022-10-30T21:58:37.302Z,25.60
2022-10-30T22:01:05.671Z,24.53
2022-10-30T22:03:33.899Z,23.23
2022-10-30T22:06:08.548Z,23.70
2022-10-30T22:08:36.662Z,23.73
2022-10-30T22:11:05.711Z,24.27
2022-10-30T22:13:33.861Z,23.93
2022-10-30T22:16:02.035Z,26.13
2022-10-30T22:18:30.166Z,24.50
2022-10-30T22:21:01.880Z,25.43
2022-10-30T22:23:31.476Z,25.93
2022-10-30T22:26:00.536Z,25.20
2022-10-30T22:28:28.775Z,26.03
2022-10-30T22:30:56.978Z,26.47
2022-10-30T22:33:25.100Z,24.30
2022-10-30T22:35:53.196Z,24.43
2022-10-30T22:38:24.366Z,24.10
2022-10-30T22:40:53.888Z,23.30
2022-10-30T22:43:21.983Z,24.03
2022-10-30T22:45:54.236Z,25.43
2022-10-30T22:48:22.492Z,23.93
2022-10-30T22:50:57.900Z,22.93
2022-10-30T22:53:26.412Z,23.53
2022-10-30T22:55:56.020Z,25.57
2022-10-30T22:58:27.729Z,24.40
2022-10-30T23:00:55.833Z,24.67
2022-10-30T23:03:23.979Z,24.23
2022-10-30T23:05:59.596Z,24.43
2022-10-30T23:08:28.037Z,23.77
2022-10-30T23:10:57.611Z,24.17
2022-10-30T23:13:25.810Z,24.00
2022-10-30T23:15:56.224Z,23.67
2022-10-30T23:18:27.127Z,23.07
2022-10-30T23:21:00.387Z,23.50
2022-10-30T23:23:28.773Z,24.83
2022-10-30T23:26:03.043Z,23.87
2022-10-30T23:28:31.220Z,23.47
2022-10-30T23:30:59.342Z,22.73
2022-10-30T23:33:27.435Z,23.23
2022-10-30T23:35:59.871Z,25.03
2022-10-30T23:38:28.041Z,24.23
2022-10-30T23:40:57.685Z,22.60
2022-10-30T23:43:25.864Z,23.83
2022-10-30T23:45:54.013Z,24.87
2022-10-30T23:48:22.092Z,24.40
2022-10-30T23:50:50.159Z,23.63
2022-10-30T23:53:18.281Z,24.57
2022-10-30T23:55:51.009Z,23.07
2022-10-30T23:58:20.489Z,23.03
